Time;durP1;ratioP1;P1;durP2;ratioP2;P2;SDS_P1;SDS_P2;PMS_P1;PMS_P2;Temp;Humidity;BMP_temperature;BMP_pressure;BME280_temperature;BME280_humidity;BME280_pressure;Samples;Min_cycle;Max_cycle;Signal;HPM_P1;HPM_P2
2021/11/30 00:00:01;;;;;;;26.13;15.38;;;;;;;;;;5039733;28;20025;-84
2021/11/30 00:02:29;;;;;;;24.77;15.60;;;;;;;;;;5057561;28;20075;-85
2021/11/30 00:04:56;;;;;;;23.20;15.82;;;;;;;;;;5057438;28;20075;-84
2021/11/30 00:07:22;;;;;;;25.15;16.45;;;;;;;;;;5039738;28;20025;-83
2021/11/30 00:12:16;;;;;;;25.05;15.45;;;;;;;;;;5057298;28;20468;-84
2021/11/30 00:14:43;;;;;;;24.02;15.30;;;;;;;;;;5057347;28;20430;-84
2021/11/30 00:17:10;;;;;;;24.73;15.90;;;;;;;;;;5057311;28;20056;-84
2021/11/30 00:19:36;;;;;;;25.38;15.75;;;;;;;;;;5057319;28;20407;-84
2021/11/30 00:22:06;;;;;;;24.63;15.80;;;;;;;;;;5057097;28;20091;-84
2021/11/30 00:24:44;;;;;;;26.77;15.40;;;;;;;;;;5057070;28;20025;-83
2021/11/30 00:27:10;;;;;;;26.90;17.63;;;;;;;;;;5039370;28;20036;-84
2021/11/30 00:29:36;;;;;;;24.33;15.63;;;;;;;;;;5057053;28;20025;-84
2021/11/30 00:32:03;;;;;;;24.75;15.30;;;;;;;;;;5057395;28;20389;-84
2021/11/30 00:34:29;;;;;;;25.20;16.00;;;;;;;;;;5056964;28;20095;-84
2021/11/30 00:36:56;;;;;;;26.88;17.77;;;;;;;;;;5057039;28;20116;-84
2021/11/30 00:39:22;;;;;;;25.00;16.70;;;;;;;;;;5039557;28;20028;-83
2021/11/30 00:44:53;;;;;;;27.08;16.58;;;;;;;;;;5057036;28;20047;-84
2021/11/30 00:47:27;;;;;;;25.17;15.93;;;;;;;;;;5057256;28;20398;-85
2021/11/30 00:49:53;;;;;;;25.73;16.20;;;;;;;;;;5056882;28;20051;-85
2021/11/30 00:52:20;;;;;;;25.55;16.50;;;;;;;;;;5039376;28;20044;-85
2021/11/30 00:54:55;;;;;;;24.40;15.88;;;;;;;;;;5056706;28;20041;-85
2021/11/30 00:57:24;;;;;;;25.55;15.45;;;;;;;;;;5057156;28;20037;-85
2021/11/30 00:59:52;;;;;;;26.85;16.42;;;;;;;;;;5039375;28;20064;-85
2021/11/30 01:02:18;;;;;;;27.55;18.10;;;;;;;;;;5056543;28;20045;-86
2021/11/30 01:04:45;;;;;;;31.20;17.98;;;;;;;;;;5056792;28;20021;-86
2021/11/30 01:07:11;;;;;;;30.25;17.80;;;;;;;;;;5060238;28;20043;-85
2021/11/30 01:09:58;;;;;;;27.92;16.90;;;;;;;;;;5060412;28;20032;-86
2021/11/30 01:12:24;;;;;;;26.63;16.38;;;;;;;;;;5042263;28;20033;-85
2021/11/30 01:14:50;;;;;;;22.40;15.93;;;;;;;;;;5042783;28;20021;-85
2021/11/30 01:17:16;;;;;;;28.70;16.33;;;;;;;;;;5060308;28;20051;-86
2021/11/30 01:19:42;;;;;;;26.13;16.38;;;;;;;;;;5060240;28;20094;-86
2021/11/30 01:22:08;;;;;;;28.52;16.77;;;;;;;;;;5060285;28;20306;-86
2021/11/30 01:24:34;;;;;;;29.33;17.15;;;;;;;;;;5060244;28;20028;-86
2021/11/30 01:27:19;;;;;;;31.27;18.27;;;;;;;;;;5060240;28;20075;-86
2021/11/30 01:29:45;;;;;;;29.10;17.15;;;;;;;;;;5060149;28;20312;-86
2021/11/30 01:32:11;;;;;;;23.38;15.30;;;;;;;;;;5060136;28;20032;-86
2021/11/30 01:34:37;;;;;;;27.30;16.02;;;;;;;;;;5060447;28;20029;-85
2021/11/30 01:37:04;;;;;;;26.33;16.63;;;;;;;;;;5042150;28;20033;-86
2021/11/30 01:39:31;;;;;;;24.15;16.02;;;;;;;;;;5060102;28;20021;-86
2021/11/30 01:45:08;;;;;;;29.08;16.25;;;;;;;;;;5060045;28;20392;-85
2021/11/30 01:50:03;;;;;;;24.00;15.50;;;;;;;;;;5059704;28;20098;-85
2021/11/30 01:52:30;;;;;;;25.83;16.10;;;;;;;;;;5059727;28;20033;-85
2021/11/30 01:54:56;;;;;;;25.45;16.40;;;;;;;;;;5042088;28;20079;-86
2021/11/30 01:57:23;;;;;;;27.55;16.13;;;;;;;;;;5059724;28;20029;-86
2021/11/30 01:59:50;;;;;;;22.65;15.57;;;;;;;;;;5060086;28;20071;-86
2021/11/30 02:02:17;;;;;;;26.10;15.75;;;;;;;;;;5059665;28;20028;-86
2021/11/30 02:04:44;;;;;;;24.17;15.55;;;;;;;;;;5059435;28;20028;-86
2021/11/30 02:07:10;;;;;;;23.77;15.15;;;;;;;;;;5059709;28;20316;-86
2021/11/30 02:09:37;;;;;;;25.00;16.90;;;;;;;;;;5059811;28;20021;-86
2021/11/30 02:15:27;;;;;;;24.30;15.40;;;;;;;;;;5059615;28;20024;-85
2021/11/30 02:17:58;;;;;;;23.40;15.52;;;;;;;;;;5059297;28;20035;-86
2021/11/30 02:20:24;;;;;;;25.05;15.85;;;;;;;;;;5059125;28;20029;-86
2021/11/30 02:22:54;;;;;;;24.02;15.40;;;;;;;;;;5041354;28;20051;-86
2021/11/30 02:25:21;;;;;;;24.75;15.90;;;;;;;;;;5058980;28;20025;-86
2021/11/30 02:27:47;;;;;;;26.13;15.60;;;;;;;;;;5059164;28;20095;-86
2021/11/30 02:30:14;;;;;;;23.85;15.90;;;;;;;;;;5059105;28;20028;-86
2021/11/30 02:32:40;;;;;;;25.13;14.68;;;;;;;;;;5041580;28;20025;-85
2021/11/30 02:35:06;;;;;;;21.75;14.23;;;;;;;;;;5041396;28;20029;-85
2021/11/30 02:37:38;;;;;;;26.95;16.02;;;;;;;;;;5058814;28;20025;-86
2021/11/30 02:40:06;;;;;;;24.73;14.93;;;;;;;;;;5041247;28;20029;-85
2021/11/30 02:42:32;;;;;;;22.85;14.52;;;;;;;;;;5058987;28;20029;-86
2021/11/30 02:44:58;;;;;;;23.45;15.40;;;;;;;;;;5058725;28;20017;-85
2021/11/30 02:47:25;;;;;;;22.67;14.50;;;;;;;;;;5041080;28;20430;-86
2021/11/30 02:49:51;;;;;;;24.40;14.50;;;;;;;;;;5058600;28;20035;-85
2021/11/30 02:52:19;;;;;;;20.70;14.55;;;;;;;;;;5058408;28;20116;-85
2021/11/30 02:54:47;;;;;;;20.23;13.65;;;;;;;;;;5058407;28;20033;-85
2021/11/30 02:57:31;;;;;;;23.50;13.95;;;;;;;;;;5040847;28;20028;-85
2021/11/30 02:59:59;;;;;;;21.00;13.05;;;;;;;;;;5040932;28;20021;-85
2021/11/30 03:02:27;;;;;;;21.58;12.90;;;;;;;;;;5058155;28;20028;-85
2021/11/30 03:04:55;;;;;;;19.25;13.27;;;;;;;;;;5040876;28;20029;-86
2021/11/30 03:07:22;;;;;;;21.23;13.20;;;;;;;;;;5040775;28;20032;-86
2021/11/30 03:09:48;;;;;;;24.10;14.35;;;;;;;;;;5058232;28;20025;-85
2021/11/30 03:12:14;;;;;;;22.00;13.68;;;;;;;;;;5057857;28;20032;-85
2021/11/30 03:14:40;;;;;;;21.42;13.23;;;;;;;;;;5058352;28;20058;-85
2021/11/30 03:17:09;;;;;;;20.98;12.75;;;;;;;;;;5040712;28;20055;-85
2021/11/30 03:19:36;;;;;;;22.25;13.57;;;;;;;;;;5058025;28;20028;-84
2021/11/30 03:22:03;;;;;;;17.67;11.20;;;;;;;;;;5057921;28;20417;-84
2021/11/30 03:24:29;;;;;;;17.67;11.98;;;;;;;;;;5057874;28;20414;-84
2021/11/30 03:26:56;;;;;;;20.95;12.35;;;;;;;;;;5057895;28;20029;-84
2021/11/30 03:29:22;;;;;;;16.98;11.48;;;;;;;;;;5057245;28;20120;-84
2021/11/30 03:31:52;;;;;;;17.27;11.00;;;;;;;;;;5039927;28;20044;-84
2021/11/30 03:34:20;;;;;;;18.55;12.20;;;;;;;;;;5057995;28;20032;-82
2021/11/30 03:36:51;;;;;;;18.65;11.98;;;;;;;;;;5057579;28;20418;-85
2021/11/30 03:39:18;;;;;;;17.52;11.80;;;;;;;;;;5039866;28;20033;-82
2021/11/30 03:41:45;;;;;;;18.15;11.15;;;;;;;;;;5057440;28;20311;-84
2021/11/30 03:44:11;;;;;;;15.55;10.38;;;;;;;;;;5057546;28;20054;-85
2021/11/30 03:46:37;;;;;;;17.23;11.45;;;;;;;;;;5057624;28;20048;-84
2021/11/30 03:49:05;;;;;;;17.75;11.48;;;;;;;;;;5039993;28;20192;-85
2021/11/30 03:51:31;;;;;;;18.13;10.82;;;;;;;;;;5040104;28;20029;-85
2021/11/30 03:53:58;;;;;;;16.23;10.77;;;;;;;;;;5039301;28;20415;-85
2021/11/30 03:56:25;;;;;;;16.98;10.88;;;;;;;;;;5057705;28;20095;-85
2021/11/30 03:58:51;;;;;;;17.42;10.45;;;;;;;;;;5057366;28;20467;-85
2021/11/30 04:01:18;;;;;;;15.48;10.70;;;;;;;;;;5057239;28;20300;-85
2021/11/30 04:03:44;;;;;;;17.02;10.02;;;;;;;;;;5057350;28;20021;-85
2021/11/30 04:06:10;;;;;;;17.13;11.05;;;;;;;;;;5057506;28;20407;-85
2021/11/30 04:08:38;;;;;;;14.60;10.38;;;;;;;;;;5057501;28;20075;-85
2021/11/30 04:11:05;;;;;;;15.90;10.65;;;;;;;;;;5057394;28;20407;-86
2021/11/30 04:13:31;;;;;;;15.70;10.02;;;;;;;;;;5057275;28;20033;-85
2021/11/30 04:15:57;;;;;;;15.27;9.85;;;;;;;;;;5039853;28;20494;-85
2021/11/30 04:18:24;;;;;;;15.73;10.52;;;;;;;;;;5039754;28;20026;-86
2021/11/30 04:20:50;;;;;;;14.85;9.80;;;;;;;;;;5039631;28;20171;-86
2021/11/30 04:23:16;;;;;;;15.32;10.02;;;;;;;;;;5039132;28;20036;-86
2021/11/30 04:25:42;;;;;;;16.13;10.18;;;;;;;;;;5057228;28;20033;-86
2021/11/30 04:28:09;;;;;;;17.02;9.82;;;;;;;;;;5057006;28;20049;-85
2021/11/30 04:30:35;;;;;;;15.00;9.40;;;;;;;;;;5039296;28;20045;-85
2021/11/30 04:33:01;;;;;;;16.35;9.85;;;;;;;;;;5056985;28;20037;-85
2021/11/30 04:35:27;;;;;;;12.63;9.15;;;;;;;;;;5057036;28;20028;-85
2021/11/30 04:37:53;;;;;;;15.68;9.88;;;;;;;;;;5057121;28;20032;-86
2021/11/30 04:40:20;;;;;;;14.63;9.05;;;;;;;;;;5057502;28;20025;-83
2021/11/30 04:48:35;;;;;;;15.98;9.52;;;;;;;;;;5061392;28;20052;-85
2021/11/30 04:51:02;;;;;;;14.40;9.70;;;;;;;;;;5061133;28;20037;-85
2021/11/30 04:53:31;;;;;;;17.35;10.45;;;;;;;;;;5060776;28;20025;-86
2021/11/30 05:02:04;;;;;;;16.20;10.35;;;;;;;;;;5060625;28;20445;-86
2021/11/30 05:04:30;;;;;;;20.90;11.70;;;;;;;;;;5060827;28;20037;-85
2021/11/30 05:06:57;;;;;;;21.90;14.27;;;;;;;;;;5060805;28;20025;-86
2021/11/30 05:09:23;;;;;;;16.63;9.95;;;;;;;;;;5060784;28;20021;-85
2021/11/30 05:11:49;;;;;;;17.55;11.13;;;;;;;;;;5060527;28;20391;-85
2021/11/30 05:14:15;;;;;;;16.55;9.80;;;;;;;;;;5060935;28;20025;-86
2021/11/30 05:16:41;;;;;;;17.63;10.93;;;;;;;;;;5042760;28;20021;-85
2021/11/30 05:19:09;;;;;;;15.90;10.32;;;;;;;;;;5060539;28;20021;-85
2021/11/30 05:21:35;;;;;;;20.30;11.23;;;;;;;;;;5059263;28;20029;-84
2021/11/30 05:24:04;;;;;;;16.30;10.40;;;;;;;;;;5060048;28;20044;-85
2021/11/30 05:26:30;;;;;;;16.13;10.07;;;;;;;;;;5060282;28;20465;-85
2021/11/30 05:28:58;;;;;;;14.68;9.10;;;;;;;;;;5060118;28;20048;-86
2021/11/30 05:31:24;;;;;;;19.08;10.93;;;;;;;;;;5060076;28;20051;-86
2021/11/30 05:33:50;;;;;;;18.75;10.75;;;;;;;;;;5042615;28;20083;-86
2021/11/30 05:36:21;;;;;;;21.00;11.55;;;;;;;;;;5042599;28;20029;-85
2021/11/30 05:38:47;;;;;;;21.30;12.55;;;;;;;;;;5060278;28;20041;-85
2021/11/30 05:41:14;;;;;;;20.92;13.55;;;;;;;;;;5041760;28;20036;-86
2021/11/30 05:43:41;;;;;;;22.60;12.95;;;;;;;;;;5042264;28;20028;-86
2021/11/30 05:46:07;;;;;;;22.90;13.90;;;;;;;;;;5059895;28;20021;-86
2021/11/30 05:48:33;;;;;;;20.45;13.88;;;;;;;;;;5042185;28;20120;-86
2021/11/30 05:51:00;;;;;;;20.98;14.15;;;;;;;;;;5059507;28;20021;-85
2021/11/30 05:53:26;;;;;;;19.65;13.23;;;;;;;;;;5059617;28;20029;-86
2021/11/30 05:55:58;;;;;;;21.67;13.35;;;;;;;;;;5059698;28;20040;-86
2021/11/30 05:58:26;;;;;;;21.48;12.82;;;;;;;;;;5059489;28;20029;-86
2021/11/30 06:00:52;;;;;;;21.05;12.50;;;;;;;;;;5042059;28;20024;-85
2021/11/30 06:06:05;;;;;;;18.23;11.45;;;;;;;;;;5059650;28;20075;-85
2021/11/30 06:08:33;;;;;;;17.30;10.75;;;;;;;;;;5059625;28;20108;-85
2021/11/30 06:11:00;;;;;;;20.63;12.15;;;;;;;;;;5059355;28;20466;-85
2021/11/30 06:13:27;;;;;;;16.45;10.00;;;;;;;;;;5058130;28;20104;-85
2021/11/30 06:15:53;;;;;;;17.10;10.77;;;;;;;;;;5059124;28;20075;-85
2021/11/30 06:18:19;;;;;;;19.65;10.90;;;;;;;;;;5041431;28;20025;-84
2021/11/30 06:20:48;;;;;;;19.90;10.43;;;;;;;;;;5040785;28;20090;-85
2021/11/30 06:23:15;;;;;;;16.48;9.98;;;;;;;;;;5041182;28;20116;-85
2021/11/30 06:25:43;;;;;;;18.90;9.48;;;;;;;;;;5059376;28;20103;-85
2021/11/30 06:28:32;;;;;;;23.33;12.63;;;;;;;;;;5057980;28;20083;-84
2021/11/30 06:33:46;;;;;;;18.98;11.73;;;;;;;;;;5059755;28;20051;-85
2021/11/30 06:38:59;;;;;;;16.73;9.25;;;;;;;;;;5083201;22;20055;-85
2021/11/30 06:44:28;;;;;;;19.15;11.15;;;;;;;;;;5060869;28;20095;-80
2021/11/30 06:46:56;;;;;;;17.88;9.68;;;;;;;;;;5094516;28;20075;-83
2021/11/30 06:49:22;;;;;;;16.65;10.25;;;;;;;;;;5078510;28;20038;-82
2021/11/30 06:51:48;;;;;;;15.85;8.85;;;;;;;;;;5078429;28;20479;-83
2021/11/30 07:00:05;;;;;;;13.82;8.23;;;;;;;;;;5078717;28;20035;-84
2021/11/30 07:02:32;;;;;;;15.80;9.25;;;;;;;;;;5076906;28;20414;-83
2021/11/30 07:05:05;;;;;;;18.90;9.98;;;;;;;;;;5077999;28;20037;-83
2021/11/30 07:10:39;;;;;;;19.27;10.02;;;;;;;;;;4997371;28;20112;-83
2021/11/30 07:15:53;;;;;;;15.80;9.05;;;;;;;;;;5016644;28;19912;-83
2021/11/30 07:18:20;;;;;;;13.68;8.20;;;;;;;;;;4999775;28;20038;-84
2021/11/30 07:20:46;;;;;;;14.00;8.65;;;;;;;;;;4999913;28;20033;-83
2021/11/30 07:23:12;;;;;;;11.20;7.63;;;;;;;;;;4999686;28;20041;-83
2021/11/30 07:25:39;;;;;;;18.77;8.80;;;;;;;;;;4999863;28;20133;-83
2021/11/30 07:28:05;;;;;;;12.10;7.82;;;;;;;;;;4999466;28;20122;-82
2021/11/30 07:30:32;;;;;;;17.50;10.32;;;;;;;;;;5016287;28;20026;-82
2021/11/30 07:32:58;;;;;;;15.25;9.50;;;;;;;;;;5016639;28;20129;-83
2021/11/30 07:35:25;;;;;;;12.80;9.05;;;;;;;;;;4999861;28;20037;-84
2021/11/30 07:37:52;;;;;;;17.42;11.85;;;;;;;;;;4999124;28;20050;-83
2021/11/30 07:40:18;;;;;;;19.38;11.88;;;;;;;;;;5016223;28;20036;-84
2021/11/30 07:42:45;;;;;;;14.15;9.25;;;;;;;;;;5016035;28;20063;-84
2021/11/30 07:45:12;;;;;;;10.93;8.38;;;;;;;;;;5080597;28;20028;-84
2021/11/30 07:47:39;;;;;;;13.43;8.93;;;;;;;;;;5097852;28;20397;-83
2021/11/30 07:50:05;;;;;;;13.88;8.57;;;;;;;;;;5097837;28;20436;-82
2021/11/30 07:52:36;;;;;;;13.10;8.38;;;;;;;;;;5079941;28;20043;-84
2021/11/30 07:55:04;;;;;;;17.05;8.98;;;;;;;;;;5097865;28;20032;-83
2021/11/30 07:57:49;;;;;;;14.63;9.23;;;;;;;;;;5079505;28;20031;-83
2021/11/30 08:00:17;;;;;;;16.88;9.95;;;;;;;;;;5080036;28;20028;-82
2021/11/30 08:02:43;;;;;;;18.23;12.05;;;;;;;;;;5097814;28;20066;-84
2021/11/30 08:05:10;;;;;;;22.40;11.27;;;;;;;;;;5079716;28;20028;-83
2021/11/30 08:07:36;;;;;;;19.90;11.85;;;;;;;;;;5079321;28;20352;-83
2021/11/30 08:10:04;;;;;;;17.02;9.40;;;;;;;;;;5079522;28;20058;-83
2021/11/30 08:12:30;;;;;;;16.15;9.48;;;;;;;;;;5097402;28;20352;-83
2021/11/30 08:14:56;;;;;;;19.63;10.75;;;;;;;;;;5100532;28;20038;-83
2021/11/30 08:17:22;;;;;;;20.20;11.23;;;;;;;;;;5104537;28;20039;-83
2021/11/30 08:19:48;;;;;;;15.90;10.98;;;;;;;;;;5104440;28;20020;-83
2021/11/30 08:22:15;;;;;;;19.38;12.10;;;;;;;;;;5104177;28;20102;-83
2021/11/30 08:24:41;;;;;;;16.85;10.63;;;;;;;;;;5085860;28;20028;-84
2021/11/30 08:27:08;;;;;;;35.15;14.98;;;;;;;;;;5103956;28;20071;-84
2021/11/30 08:29:38;;;;;;;62.72;22.40;;;;;;;;;;5085858;28;20028;-83
2021/11/30 08:32:04;;;;;;;48.40;20.40;;;;;;;;;;5104136;28;20012;-83
2021/11/30 08:34:30;;;;;;;22.73;11.77;;;;;;;;;;5086168;28;20021;-84
2021/11/30 08:36:56;;;;;;;18.02;11.55;;;;;;;;;;5103879;28;20024;-83
2021/11/30 08:39:22;;;;;;;14.10;9.50;;;;;;;;;;5103881;28;20024;-83
2021/11/30 08:41:48;;;;;;;14.82;8.90;;;;;;;;;;5086197;28;20028;-84
2021/11/30 08:44:15;;;;;;;16.48;9.38;;;;;;;;;;5085804;28;20095;-83
2021/11/30 08:46:41;;;;;;;14.32;8.85;;;;;;;;;;5104199;28;20089;-84
2021/11/30 08:49:07;;;;;;;14.73;9.90;;;;;;;;;;5103810;28;20431;-83
2021/11/30 08:51:33;;;;;;;18.25;9.35;;;;;;;;;;5104147;28;20085;-83
2021/11/30 08:53:59;;;;;;;15.90;10.35;;;;;;;;;;5086068;28;20039;-85
2021/11/30 08:56:25;;;;;;;18.00;11.27;;;;;;;;;;5103869;28;20028;-83
2021/11/30 08:58:52;;;;;;;20.85;12.40;;;;;;;;;;5103707;28;20365;-83
2021/11/30 09:01:19;;;;;;;19.55;11.82;;;;;;;;;;5085954;28;20020;-83
2021/11/30 09:03:45;;;;;;;17.75;10.85;;;;;;;;;;5085279;28;20032;-80
2021/11/30 09:06:11;;;;;;;17.65;10.88;;;;;;;;;;5103546;28;20116;-81
2021/11/30 09:08:38;;;;;;;16.27;10.15;;;;;;;;;;5103702;28;20024;-83
2021/11/30 09:11:04;;;;;;;17.42;9.85;;;;;;;;;;5103387;28;20295;-83
2021/11/30 09:13:30;;;;;;;17.40;10.90;;;;;;;;;;5085672;28;20036;-84
2021/11/30 09:15:56;;;;;;;17.05;10.15;;;;;;;;;;5103553;28;20317;-84
2021/11/30 09:18:23;;;;;;;17.20;9.88;;;;;;;;;;5103852;28;20048;-84
2021/11/30 09:20:49;;;;;;;21.55;12.10;;;;;;;;;;5085415;28;20055;-83
2021/11/30 09:23:15;;;;;;;17.15;11.10;;;;;;;;;;5085731;28;20023;-84
2021/11/30 09:25:41;;;;;;;12.30;9.20;;;;;;;;;;5084688;28;20445;-84
2021/11/30 09:28:07;;;;;;;15.55;9.75;;;;;;;;;;5082211;28;20043;-83
2021/11/30 09:30:34;;;;;;;18.95;11.93;;;;;;;;;;5100391;28;20441;-83
2021/11/30 09:33:01;;;;;;;13.32;9.57;;;;;;;;;;5100403;28;20032;-83
2021/11/30 09:35:27;;;;;;;12.43;8.30;;;;;;;;;;5100339;28;20052;-82
2021/11/30 09:37:54;;;;;;;13.45;9.30;;;;;;;;;;5099981;28;20052;-83
2021/11/30 09:40:23;;;;;;;12.18;8.35;;;;;;;;;;5082400;28;20480;-83
2021/11/30 09:42:50;;;;;;;15.82;8.57;;;;;;;;;;5099810;28;20077;-83
2021/11/30 09:45:16;;;;;;;10.90;8.80;;;;;;;;;;5100171;28;20030;-84
2021/11/30 09:47:43;;;;;;;14.25;9.02;;;;;;;;;;5100097;28;20039;-83
2021/11/30 09:50:12;;;;;;;12.32;8.15;;;;;;;;;;5082296;28;20065;-83
2021/11/30 09:52:38;;;;;;;12.73;7.65;;;;;;;;;;5082057;28;20131;-83
2021/11/30 09:55:05;;;;;;;14.15;8.70;;;;;;;;;;5099625;28;20024;-84
2021/11/30 09:57:31;;;;;;;11.82;7.70;;;;;;;;;;5099905;28;20028;-83
2021/11/30 09:59:58;;;;;;;11.65;7.35;;;;;;;;;;5081877;28;20381;-84
2021/11/30 10:02:24;;;;;;;13.68;7.78;;;;;;;;;;5099571;28;20402;-84
2021/11/30 10:04:50;;;;;;;12.70;8.85;;;;;;;;;;5099573;28;20028;-84
2021/11/30 10:07:16;;;;;;;11.18;7.88;;;;;;;;;;5099860;28;20032;-83
2021/11/30 10:09:42;;;;;;;11.38;7.10;;;;;;;;;;5081797;28;20299;-84
2021/11/30 10:12:09;;;;;;;10.82;8.10;;;;;;;;;;5099549;28;20024;-84
2021/11/30 10:14:37;;;;;;;11.18;7.38;;;;;;;;;;5099608;28;20051;-84
2021/11/30 10:17:11;;;;;;;14.80;8.43;;;;;;;;;;5099564;28;20387;-83
2021/11/30 10:19:38;;;;;;;17.55;9.23;;;;;;;;;;5081587;28;20022;-84
2021/11/30 10:22:04;;;;;;;11.15;7.00;;;;;;;;;;5099378;28;20095;-83
2021/11/30 10:24:30;;;;;;;12.20;7.50;;;;;;;;;;5081318;28;20024;-84
2021/11/30 10:26:56;;;;;;;8.20;6.72;;;;;;;;;;5081062;28;20032;-83
2021/11/30 10:29:23;;;;;;;11.95;8.48;;;;;;;;;;5080042;28;20024;-83
2021/11/30 10:31:52;;;;;;;11.77;7.32;;;;;;;;;;5060739;28;20031;-85
2021/11/30 10:34:21;;;;;;;10.20;6.65;;;;;;;;;;5061086;28;20055;-84
2021/11/30 10:36:47;;;;;;;10.18;7.15;;;;;;;;;;5059844;28;20063;-83
2021/11/30 10:39:25;;;;;;;10.90;6.72;;;;;;;;;;5056706;28;20021;-84
2021/11/30 10:41:52;;;;;;;9.52;6.28;;;;;;;;;;5058863;28;20028;-83
2021/11/30 10:44:37;;;;;;;8.63;5.65;;;;;;;;;;5057072;28;20123;-84
2021/11/30 10:47:10;;;;;;;10.48;6.85;;;;;;;;;;5058608;28;20028;-83
2021/11/30 10:49:44;;;;;;;9.30;6.00;;;;;;;;;;5058723;28;20029;-83
2021/11/30 10:52:14;;;;;;;9.52;6.53;;;;;;;;;;5058628;28;20025;-83
2021/11/30 10:54:40;;;;;;;9.77;6.88;;;;;;;;;;5058199;28;20060;-82
2021/11/30 10:57:06;;;;;;;10.13;5.88;;;;;;;;;;5056862;28;20032;-83
2021/11/30 10:59:33;;;;;;;9.30;6.50;;;;;;;;;;5058079;28;20139;-83
2021/11/30 11:01:59;;;;;;;8.68;6.38;;;;;;;;;;5056427;28;20059;-83
2021/11/30 11:04:29;;;;;;;9.10;6.32;;;;;;;;;;5058078;28;20028;-83
2021/11/30 11:07:06;;;;;;;14.45;6.43;;;;;;;;;;5057917;28;20025;-83
2021/11/30 11:09:43;;;;;;;10.55;7.03;;;;;;;;;;5058123;28;20036;-83
2021/11/30 11:12:41;;;;;;;10.95;7.68;;;;;;;;;;5056697;28;20025;-83
2021/11/30 11:15:07;;;;;;;16.02;10.35;;;;;;;;;;5058123;28;20100;-83
2021/11/30 11:17:34;;;;;;;11.23;7.25;;;;;;;;;;5057974;28;20025;-82
2021/11/30 11:20:01;;;;;;;14.77;8.43;;;;;;;;;;5057982;28;20055;-84
2021/11/30 11:22:28;;;;;;;13.15;8.20;;;;;;;;;;5057740;28;20100;-83
2021/11/30 11:24:59;;;;;;;13.50;9.80;;;;;;;;;;5058075;28;20035;-84
2021/11/30 11:27:44;;;;;;;11.85;6.85;;;;;;;;;;5056260;28;20490;-83
2021/11/30 11:30:13;;;;;;;11.38;8.15;;;;;;;;;;5057647;28;20036;-82
2021/11/30 11:32:39;;;;;;;10.68;7.60;;;;;;;;;;5057827;28;20429;-83
2021/11/30 11:35:06;;;;;;;8.32;6.35;;;;;;;;;;5057508;28;20025;-82
2021/11/30 11:37:32;;;;;;;9.18;6.40;;;;;;;;;;5057466;28;20162;-83
2021/11/30 11:39:59;;;;;;;10.10;7.03;;;;;;;;;;5055618;28;20044;-83
2021/11/30 11:42:25;;;;;;;11.75;7.78;;;;;;;;;;5055625;28;20044;-83
2021/11/30 11:44:52;;;;;;;9.00;6.35;;;;;;;;;;5057585;28;20032;-83
2021/11/30 11:47:21;;;;;;;9.88;6.63;;;;;;;;;;5057076;28;20025;-82
2021/11/30 11:49:48;;;;;;;11.27;7.65;;;;;;;;;;5057036;28;20024;-83
2021/11/30 11:52:37;;;;;;;13.82;7.22;;;;;;;;;;5057281;28;20040;-83
2021/11/30 11:55:12;;;;;;;13.98;7.43;;;;;;;;;;5057332;28;20044;-83
2021/11/30 11:57:38;;;;;;;13.23;8.30;;;;;;;;;;5057304;28;20074;-82
2021/11/30 12:00:33;;;;;;;9.35;5.82;;;;;;;;;;5055771;28;20025;-82
2021/11/30 12:02:59;;;;;;;12.48;6.95;;;;;;;;;;5055395;28;20044;-81
2021/11/30 12:05:54;;;;;;;11.98;6.85;;;;;;;;;;5057088;28;20029;-83
2021/11/30 12:08:21;;;;;;;11.48;6.25;;;;;;;;;;4995921;28;20181;-82
2021/11/30 12:10:50;;;;;;;11.00;6.78;;;;;;;;;;4979615;28;20042;-82
2021/11/30 12:13:18;;;;;;;8.25;5.20;;;;;;;;;;4979657;28;20042;-82
2021/11/30 12:16:04;;;;;;;6.40;5.00;;;;;;;;;;4996187;28;20090;-82
2021/11/30 12:18:30;;;;;;;11.32;7.03;;;;;;;;;;4995822;28;20041;-82
2021/11/30 12:21:14;;;;;;;10.55;6.43;;;;;;;;;;4979503;28;20042;-82
2021/11/30 12:23:41;;;;;;;17.98;11.18;;;;;;;;;;4995969;28;20045;-82
2021/11/30 12:26:27;;;;;;;16.40;10.27;;;;;;;;;;4996005;28;20056;-82
2021/11/30 12:28:53;;;;;;;30.98;15.07;;;;;;;;;;4995482;28;20023;-82
2021/11/30 12:31:28;;;;;;;42.30;20.25;;;;;;;;;;4995964;28;20034;-82
2021/11/30 12:33:54;;;;;;;36.85;18.95;;;;;;;;;;4979107;28;20102;-82
2021/11/30 12:36:27;;;;;;;15.60;8.50;;;;;;;;;;4995637;28;20035;-82
2021/11/30 12:38:56;;;;;;;20.17;11.13;;;;;;;;;;4995579;28;20077;-83
2021/11/30 12:41:22;;;;;;;21.45;12.88;;;;;;;;;;4996034;28;20031;-83
2021/11/30 12:43:49;;;;;;;16.23;9.35;;;;;;;;;;5004137;28;20148;-83
2021/11/30 12:46:28;;;;;;;19.48;10.18;;;;;;;;;;5056806;28;20032;-83
2021/11/30 12:48:54;;;;;;;15.45;8.57;;;;;;;;;;5056981;28;20051;-82
2021/11/30 12:51:20;;;;;;;12.23;7.60;;;;;;;;;;5056997;28;20023;-83
2021/11/30 12:53:46;;;;;;;16.38;8.32;;;;;;;;;;5055015;28;20316;-83
2021/11/30 12:56:13;;;;;;;18.90;8.63;;;;;;;;;;5055627;28;20044;-83
2021/11/30 12:58:57;;;;;;;24.40;11.20;;;;;;;;;;5055286;28;20338;-83
2021/11/30 13:01:24;;;;;;;18.67;9.55;;;;;;;;;;5055952;28;20033;-83
2021/11/30 13:03:52;;;;;;;15.52;7.88;;;;;;;;;;5060674;28;20029;-84
2021/11/30 13:06:19;;;;;;;24.75;10.80;;;;;;;;;;5060472;28;20021;-84
2021/11/30 13:09:09;;;;;;;15.68;7.80;;;;;;;;;;5060633;28;20116;-84
2021/11/30 13:11:35;;;;;;;8.13;5.47;;;;;;;;;;5060170;28;20335;-84
2021/11/30 13:14:04;;;;;;;14.63;8.10;;;;;;;;;;5060256;28;20028;-83
2021/11/30 13:16:31;;;;;;;14.95;7.82;;;;;;;;;;5060416;28;20057;-83
2021/11/30 13:19:04;;;;;;;12.63;7.25;;;;;;;;;;5060402;28;20391;-83
2021/11/30 13:21:35;;;;;;;12.27;7.63;;;;;;;;;;5059081;28;20076;-83
2021/11/30 13:24:05;;;;;;;20.45;9.82;;;;;;;;;;5060042;28;20029;-82
2021/11/30 13:26:31;;;;;;;23.92;12.02;;;;;;;;;;5059969;28;20043;-83
2021/11/30 13:28:59;;;;;;;22.98;10.85;;;;;;;;;;5058906;28;20426;-83
2021/11/30 13:31:25;;;;;;;19.65;10.25;;;;;;;;;;5058792;28;20025;-83
2021/11/30 13:33:52;;;;;;;28.35;12.85;;;;;;;;;;5059961;28;20024;-83
2021/11/30 13:36:18;;;;;;;15.95;8.52;;;;;;;;;;5059808;28;20021;-83
2021/11/30 13:38:48;;;;;;;14.10;8.00;;;;;;;;;;5059551;28;20069;-82
2021/11/30 13:41:15;;;;;;;10.40;6.95;;;;;;;;;;5059846;28;20296;-83
2021/11/30 13:43:43;;;;;;;10.07;6.22;;;;;;;;;;5059510;28;20031;-83
2021/11/30 13:46:10;;;;;;;14.07;8.00;;;;;;;;;;5057869;28;20338;-82
2021/11/30 13:48:41;;;;;;;12.95;7.63;;;;;;;;;;5059712;28;20415;-83
2021/11/30 13:51:08;;;;;;;18.35;8.10;;;;;;;;;;5059606;28;20109;-82
2021/11/30 13:53:35;;;;;;;36.35;12.35;;;;;;;;;;5059383;28;20407;-83
2021/11/30 13:56:16;;;;;;;34.35;12.43;;;;;;;;;;5059725;28;20032;-82
2021/11/30 13:58:51;;;;;;;18.55;8.60;;;;;;;;;;5059100;28;20478;-83
2021/11/30 14:01:20;;;;;;;12.80;7.75;;;;;;;;;;5059433;28;20465;-83
2021/11/30 14:03:47;;;;;;;15.10;8.57;;;;;;;;;;5057203;28;20037;-82
2021/11/30 14:06:32;;;;;;;20.92;11.13;;;;;;;;;;5057298;28;20060;-82
2021/11/30 14:09:09;;;;;;;21.70;11.05;;;;;;;;;;5059417;28;20021;-82
2021/11/30 14:11:37;;;;;;;20.98;10.98;;;;;;;;;;5059208;28;20044;-82
2021/11/30 14:14:23;;;;;;;19.75;12.18;;;;;;;;;;5057389;28;20124;-83
2021/11/30 14:16:49;;;;;;;17.00;9.90;;;;;;;;;;5059054;28;20434;-82
2021/11/30 14:19:15;;;;;;;28.45;13.20;;;;;;;;;;5057884;28;20029;-83
2021/11/30 14:21:42;;;;;;;26.45;14.35;;;;;;;;;;5059177;28;20357;-82
2021/11/30 14:24:12;;;;;;;20.25;10.32;;;;;;;;;;5057567;28;20101;-82
2021/11/30 14:26:40;;;;;;;19.10;10.77;;;;;;;;;;5058835;28;20017;-82
2021/11/30 14:29:14;;;;;;;16.42;8.43;;;;;;;;;;5057280;28;20036;-82
2021/11/30 14:32:00;;;;;;;18.27;10.52;;;;;;;;;;5058699;28;20025;-82
2021/11/30 14:34:27;;;;;;;29.95;16.42;;;;;;;;;;5058535;28;20025;-83
2021/11/30 14:36:53;;;;;;;50.38;26.98;;;;;;;;;;5058723;28;20029;-83
2021/11/30 14:39:23;;;;;;;47.17;22.83;;;;;;;;;;5058504;28;20032;-83
2021/11/30 14:41:50;;;;;;;27.52;15.65;;;;;;;;;;5058614;28;20500;-83
2021/11/30 14:44:31;;;;;;;18.50;10.38;;;;;;;;;;5058284;28;20032;-84
2021/11/30 14:46:58;;;;;;;22.13;12.52;;;;;;;;;;5058557;28;20036;-83
2021/11/30 14:49:24;;;;;;;21.60;12.10;;;;;;;;;;5058272;28;20021;-83
2021/11/30 14:51:50;;;;;;;25.42;13.70;;;;;;;;;;5058494;28;20029;-83
2021/11/30 14:54:18;;;;;;;29.48;20.85;;;;;;;;;;5068935;28;20043;-82
2021/11/30 14:56:45;;;;;;;27.45;13.82;;;;;;;;;;5078217;28;20016;-82
2021/11/30 14:59:17;;;;;;;40.40;22.10;;;;;;;;;;5078135;28;20045;-83
2021/11/30 15:02:08;;;;;;;29.90;15.80;;;;;;;;;;5078132;28;20423;-82
2021/11/30 15:04:35;;;;;;;20.52;12.80;;;;;;;;;;5078285;28;20333;-82
2021/11/30 15:07:13;;;;;;;23.38;12.65;;;;;;;;;;5078182;28;20036;-83
2021/11/30 15:09:44;;;;;;;24.23;13.25;;;;;;;;;;5078013;28;20028;-83
2021/11/30 15:12:10;;;;;;;13.45;8.93;;;;;;;;;;5078161;28;20028;-83
2021/11/30 15:17:39;;;;;;;16.60;9.82;;;;;;;;;;5078147;28;20039;-83
2021/11/30 15:20:07;;;;;;;19.70;11.70;;;;;;;;;;5077846;28;20024;-83
2021/11/30 15:22:35;;;;;;;38.92;18.17;;;;;;;;;;5077819;28;20020;-83